メインページ
METAR-TAF:

METAR-TAF

空港 :

サスカトゥーン・ジョン・G・ディーフェンベーカー国際空港

サスカトゥーン, サスカチュワン州, カナダ

緯度: 52-10N, 経度: 106-41W, 海抜: 501m

現時点の気象観測

当レポートは59分前の03:00(UTC)に作成
北/北東の風 9kt
気温 -14°C
湿度 85%
気圧 1010 hPa
視程: 16.1km
高度4500ftの曇り
小雪

METAR: CYXE 130300Z 02009KT 10SM -SN OVC045 M14/M16 A2983 RMK SC8 SLP147

時間: 21:59 (03:59 UTC)

予報

当レポートは4時間21分前の23:38(UTC)に作成
予報は13日の 00時(UTC)から 13日の 24時(UTC)まで有効
の風 8kt
視程: 9.7km
高度5000ftの曇り
小雪
13日の 00時(UTC)から 13日の 06時(UTC)まで一時的に
高度1500ftの
小雪
13日の 01時(UTC)から 13日の 03時(UTC)まで徐々に
の風 10kt
13日の 0600時(UTC)から
の風 10kt
視程: 10km
高度1500ftの雲は散在している
高度3000ftの曇り
小雪
13日の 06時(UTC)から 13日の 15時(UTC)まで一時的に
視程: 3.2km
高度1500ftの千切れ雲あり
高度3000ftの曇り
小雪
13日の 1500時(UTC)から
の風 10kt
視程: 10km
高度3000ftの千切れ雲あり
13日の 15時(UTC)から 13日の 18時(UTC)まで一時的に
視程: 8.0km
高度1500ftの千切れ雲あり
小雪
13日の 1800時(UTC)から
の風 10kt
視程: 10km
高度3000ftの千切れ雲あり
13日の 18時(UTC)から 13日の 24時(UTC)まで一時的に
高度3000ftの雲は散在している

TAF: CYXE 122338Z 1300/1324 08008KT 6SM -SN OVC050 TEMPO 1300/1306 11/2SM -SN VV015 BECMG 1301/1303 01010KT FM130600 01010KT P6SM -SN SCT015 OVC030 TEMPO 1306/1315 2SM -SN BKN015 OVC030 FM131500 01010KT P6SM BKN030 TEMPO 1315/1318 5SM -SN BKN015 FM131800 01010KT P6SM BKN030 TEMPO 1318/1324 SCT030 RMK NXT FCST BY 130600Z

4,000以上の空港の気象観測と天気予報(METAR報とTAF報)

利用可能な観測所は地図上に黄色い丸と赤い丸で示す。

丸の上にカーソルを重ねると観測所名を参照できる。

次にクリックすると気象観測と天気予報を参照できる。

マップの切り替え:黒色「×」印の緑ボタンをクリックして拡大、「-」印の緑ボタンをクリックして縮小、緑色の三角印をクリックして隣りの地図に切り替え


METAR-TAF: